createdAt,value
2017-12-14T00:00:20.184Z,980.44
2017-12-14T00:01:20.152Z,980.37
2017-12-14T00:02:20.426Z,980.23
2017-12-14T00:03:20.094Z,980.25
2017-12-14T00:04:20.059Z,980.25
2017-12-14T00:05:20.024Z,980.19
2017-12-14T00:06:19.987Z,980.30
2017-12-14T00:07:19.957Z,980.17
2017-12-14T00:08:20.232Z,980.08
2017-12-14T00:09:19.893Z,980.10
2017-12-14T00:10:19.885Z,980.21
2017-12-14T00:11:19.822Z,980.07
2017-12-14T00:12:19.799Z,980.12
2017-12-14T00:13:19.774Z,980.00
2017-12-14T00:14:19.737Z,980.07
2017-12-14T00:15:19.696Z,980.03
2017-12-14T00:16:19.667Z,979.96
2017-12-14T00:17:19.624Z,979.89
2017-12-14T00:18:19.596Z,979.96
2017-12-14T00:19:19.564Z,979.83
2017-12-14T00:20:19.780Z,979.75
2017-12-14T00:21:19.510Z,979.87
2017-12-14T00:22:19.469Z,979.79
2017-12-14T00:23:19.429Z,979.84
2017-12-14T00:24:19.405Z,979.85
2017-12-14T00:25:19.369Z,979.81
2017-12-14T00:26:19.344Z,979.86
2017-12-14T00:27:19.308Z,979.90
2017-12-14T00:28:19.275Z,979.77
2017-12-14T00:29:19.248Z,979.77
2017-12-14T00:30:19.209Z,979.82
2017-12-14T00:31:19.167Z,979.85
2017-12-14T00:32:19.137Z,979.84
2017-12-14T00:33:19.110Z,979.63
2017-12-14T00:34:19.078Z,979.76
2017-12-14T00:35:19.044Z,979.69
2017-12-14T00:36:19.015Z,979.68
2017-12-14T00:37:19.002Z,979.72
2017-12-14T00:38:18.949Z,979.54
2017-12-14T00:39:18.922Z,979.65
2017-12-14T00:40:18.891Z,979.48
2017-12-14T00:41:18.853Z,979.59
2017-12-14T00:42:18.824Z,979.54
2017-12-14T00:43:18.789Z,979.54
2017-12-14T00:44:19.055Z,979.47
2017-12-14T00:45:18.713Z,979.39
2017-12-14T00:46:18.690Z,979.49
2017-12-14T00:47:18.652Z,979.49
2017-12-14T00:48:18.628Z,979.42
2017-12-14T00:49:18.587Z,979.39
2017-12-14T00:50:18.555Z,979.32
2017-12-14T00:51:18.540Z,979.24
2017-12-14T00:52:18.494Z,979.27
2017-12-14T00:53:18.464Z,979.34
2017-12-14T00:54:18.440Z,979.28
2017-12-14T00:55:18.398Z,979.29
2017-12-14T00:56:18.362Z,979.19
2017-12-14T00:57:18.323Z,979.12
2017-12-14T00:58:18.298Z,979.19
2017-12-14T00:59:18.266Z,979.29
2017-12-14T01:00:18.237Z,979.34
2017-12-14T01:01:18.208Z,979.17
2017-12-14T01:02:18.163Z,979.24
2017-12-14T01:03:18.139Z,979.15
2017-12-14T01:04:18.101Z,979.21
2017-12-14T01:05:18.075Z,979.17
2017-12-14T01:06:18.043Z,979.10
2017-12-14T01:07:18.007Z,979.05
2017-12-14T01:08:17.979Z,979.09
2017-12-14T01:09:17.945Z,979.15
2017-12-14T01:10:17.921Z,979.06
2017-12-14T01:11:17.877Z,979.13
2017-12-14T01:12:17.841Z,979.03
2017-12-14T01:13:18.107Z,979.07
2017-12-14T01:14:17.780Z,978.95
2017-12-14T01:15:17.753Z,979.10
2017-12-14T01:16:17.729Z,979.07
2017-12-14T01:17:17.682Z,978.99
2017-12-14T01:18:17.651Z,979.07
2017-12-14T01:19:17.625Z,978.90
2017-12-14T01:20:17.584Z,978.96
2017-12-14T01:21:17.552Z,978.99
2017-12-14T01:22:17.531Z,979.12
2017-12-14T01:23:17.494Z,978.85
2017-12-14T01:24:17.452Z,979.11
2017-12-14T01:25:17.431Z,979.05
2017-12-14T01:26:17.398Z,978.96
2017-12-14T01:27:17.366Z,979.00
2017-12-14T01:28:17.329Z,978.96
2017-12-14T01:29:17.289Z,978.92
2017-12-14T01:30:17.268Z,978.93
2017-12-14T01:31:17.228Z,978.95
2017-12-14T01:32:17.207Z,978.95
2017-12-14T01:33:17.163Z,978.90
2017-12-14T01:34:17.138Z,978.88
2017-12-14T01:35:17.106Z,978.93
2017-12-14T01:36:17.070Z,979.25
2017-12-14T01:37:17.037Z,978.90
2017-12-14T01:38:17.005Z,979.04
2017-12-14T01:39:16.965Z,978.86
2017-12-14T01:40:16.933Z,978.91
2017-12-14T01:41:16.906Z,978.78
2017-12-14T01:42:16.880Z,978.85
2017-12-14T01:43:17.105Z,979.12
2017-12-14T01:44:16.808Z,979.20
2017-12-14T01:45:16.784Z,979.09
2017-12-14T01:46:16.751Z,979.02
2017-12-14T01:47:16.727Z,979.31
2017-12-14T01:48:16.682Z,979.03
2017-12-14T01:49:16.955Z,979.19
2017-12-14T01:50:16.625Z,978.99
2017-12-14T01:51:16.586Z,979.21
2017-12-14T01:52:16.560Z,979.05
2017-12-14T01:53:16.519Z,979.07
2017-12-14T01:54:16.487Z,978.65
2017-12-14T01:55:16.810Z,978.75
2017-12-14T01:56:16.419Z,979.18
2017-12-14T01:57:16.398Z,978.99
2017-12-14T01:58:16.359Z,979.09
2017-12-14T01:59:16.341Z,979.12
2017-12-14T02:00:16.296Z,979.24
2017-12-14T02:01:16.267Z,979.21
2017-12-14T02:02:16.239Z,979.16
2017-12-14T02:03:16.205Z,979.02
2017-12-14T02:04:16.169Z,979.09
2017-12-14T02:05:16.137Z,979.14
2017-12-14T02:06:16.115Z,979.35
2017-12-14T02:07:16.370Z,979.16
2017-12-14T02:08:16.042Z,979.36
2017-12-14T02:09:16.014Z,979.42
2017-12-14T02:10:15.984Z,979.32
2017-12-14T02:11:15.944Z,979.44
2017-12-14T02:12:15.913Z,979.38
2017-12-14T02:13:15.888Z,979.34
2017-12-14T02:14:15.860Z,979.52
2017-12-14T02:15:15.818Z,979.32
2017-12-14T02:16:15.790Z,979.30
2017-12-14T02:17:15.761Z,979.35
2017-12-14T02:18:15.731Z,979.37
2017-12-14T02:19:15.696Z,979.47
2017-12-14T02:20:15.669Z,979.16
2017-12-14T02:21:15.632Z,979.51
2017-12-14T02:22:15.609Z,979.54
2017-12-14T02:23:15.574Z,979.46
2017-12-14T02:24:15.532Z,979.33
2017-12-14T02:25:15.509Z,979.34
2017-12-14T02:26:15.474Z,979.41
2017-12-14T02:27:15.449Z,979.24
2017-12-14T02:28:15.460Z,979.53
2017-12-14T02:29:15.387Z,979.24
2017-12-14T02:30:15.354Z,979.58
2017-12-14T02:31:15.315Z,979.47
2017-12-14T02:32:15.293Z,979.32
2017-12-14T02:33:15.254Z,979.63
2017-12-14T02:34:15.218Z,979.69
2017-12-14T02:35:15.187Z,979.58
2017-12-14T02:36:15.160Z,979.28
2017-12-14T02:37:15.431Z,979.15
2017-12-14T02:38:15.096Z,979.45
2017-12-14T02:39:15.071Z,979.53
2017-12-14T02:40:15.032Z,979.56
2017-12-14T02:41:15.003Z,979.47
2017-12-14T02:42:14.971Z,979.49
2017-12-14T02:43:14.946Z,979.52
2017-12-14T02:44:14.919Z,979.45
2017-12-14T02:45:14.879Z,979.33
2017-12-14T02:46:14.849Z,979.49
2017-12-14T02:47:14.827Z,979.49
2017-12-14T02:48:14.784Z,979.63
2017-12-14T02:49:14.750Z,979.59
2017-12-14T02:50:14.725Z,979.63
2017-12-14T02:51:14.686Z,979.64
2017-12-14T02:52:14.656Z,979.54
2017-12-14T02:53:14.630Z,979.45
2017-12-14T02:54:14.594Z,979.53
2017-12-14T02:55:14.820Z,979.63
2017-12-14T02:56:14.538Z,979.60
2017-12-14T02:57:14.494Z,979.52
2017-12-14T02:58:14.462Z,979.64
2017-12-14T02:59:14.436Z,979.73
2017-12-14T03:00:14.411Z,979.61
2017-12-14T03:01:14.381Z,979.76
2017-12-14T03:02:14.341Z,979.90
2017-12-14T03:03:14.317Z,979.69
2017-12-14T03:04:14.281Z,979.64
2017-12-14T03:05:14.252Z,979.72
2017-12-14T03:06:14.220Z,979.88
2017-12-14T03:07:14.483Z,979.78
2017-12-14T03:08:14.150Z,979.80
2017-12-14T03:09:14.121Z,979.98
2017-12-14T03:10:14.093Z,979.81
2017-12-14T03:11:14.062Z,979.89
2017-12-14T03:12:14.034Z,979.91
2017-12-14T03:13:14.303Z,979.92
2017-12-14T03:14:13.973Z,979.95
2017-12-14T03:15:13.940Z,980.07
2017-12-14T03:16:13.907Z,980.06
2017-12-14T03:17:13.892Z,979.93
2017-12-14T03:18:13.845Z,980.10
2017-12-14T03:19:13.811Z,980.09
2017-12-14T03:20:13.775Z,979.94
2017-12-14T03:21:13.749Z,980.06
2017-12-14T03:22:13.723Z,980.15
2017-12-14T03:23:13.692Z,980.28
2017-12-14T03:24:13.650Z,980.03
2017-12-14T03:25:13.627Z,980.10
2017-12-14T03:26:13.598Z,980.06
2017-12-14T03:27:13.583Z,980.15
2017-12-14T03:28:13.537Z,980.16
2017-12-14T03:29:13.513Z,980.34
2017-12-14T03:30:13.475Z,980.25
2017-12-14T03:31:13.443Z,980.30
2017-12-14T03:32:13.406Z,980.28
2017-12-14T03:33:13.374Z,980.39
2017-12-14T03:34:13.344Z,980.35
2017-12-14T03:35:13.318Z,980.24
2017-12-14T03:36:13.280Z,980.26
2017-12-14T03:37:13.548Z,980.38
2017-12-14T03:38:13.232Z,980.72
2017-12-14T03:39:13.186Z,980.14
2017-12-14T03:40:13.155Z,980.38
2017-12-14T03:41:13.129Z,980.36
2017-12-14T03:42:13.099Z,980.32
2017-12-14T03:43:13.068Z,980.58
2017-12-14T03:44:13.033Z,980.37
2017-12-14T03:45:13.000Z,980.36
2017-12-14T03:46:12.963Z,980.45
2017-12-14T03:47:12.942Z,980.23
2017-12-14T03:48:12.913Z,980.19
2017-12-14T03:49:12.872Z,980.32
2017-12-14T03:50:12.839Z,980.58
2017-12-14T03:51:12.813Z,980.53
2017-12-14T03:52:12.781Z,980.52
2017-12-14T03:53:12.763Z,980.25
2017-12-14T03:54:12.720Z,980.61
2017-12-14T03:55:12.992Z,980.63
2017-12-14T03:56:12.662Z,980.82
2017-12-14T03:57:12.632Z,980.62
2017-12-14T03:58:12.596Z,980.98
2017-12-14T03:59:12.561Z,980.69
2017-12-14T04:00:12.538Z,980.56
2017-12-14T04:01:12.496Z,980.76
2017-12-14T04:02:12.473Z,980.67
2017-12-14T04:03:12.443Z,980.86
2017-12-14T04:04:12.413Z,980.59
2017-12-14T04:05:12.370Z,980.71
2017-12-14T04:06:12.353Z,980.67
2017-12-14T04:07:12.319Z,980.75
2017-12-14T04:08:12.277Z,980.45
2017-12-14T04:09:12.265Z,980.86
2017-12-14T04:10:12.236Z,980.88
2017-12-14T04:11:12.189Z,980.24
2017-12-14T04:12:12.164Z,980.67
2017-12-14T04:13:12.127Z,980.76
2017-12-14T04:14:12.094Z,980.74
2017-12-14T04:15:12.074Z,980.69
2017-12-14T04:16:12.039Z,980.90
2017-12-14T04:17:12.003Z,980.80
2017-12-14T04:18:11.973Z,980.78
2017-12-14T04:19:11.946Z,980.67
2017-12-14T04:20:11.921Z,980.84
2017-12-14T04:21:11.870Z,980.45
2017-12-14T04:22:11.850Z,980.76
2017-12-14T04:23:11.817Z,980.94
2017-12-14T04:24:11.785Z,980.94
2017-12-14T04:25:11.759Z,980.82
2017-12-14T04:26:11.729Z,981.03
2017-12-14T04:27:11.697Z,981.11
2017-12-14T04:28:11.662Z,981.11
2017-12-14T04:29:11.629Z,980.86
2017-12-14T04:30:11.595Z,980.99
2017-12-14T04:31:11.912Z,981.03
2017-12-14T04:32:11.533Z,981.13
2017-12-14T04:33:11.496Z,981.19
2017-12-14T04:34:11.466Z,981.28
2017-12-14T04:35:11.439Z,981.12
2017-12-14T04:36:11.408Z,981.24
2017-12-14T04:37:11.379Z,980.97
2017-12-14T04:38:11.352Z,981.04
2017-12-14T04:39:11.315Z,981.42
2017-12-14T04:40:11.291Z,981.14
2017-12-14T04:41:11.268Z,981.29
2017-12-14T04:42:11.229Z,980.83
2017-12-14T04:43:11.197Z,980.98
2017-12-14T04:44:11.161Z,981.25
2017-12-14T04:45:11.138Z,981.03
2017-12-14T04:46:11.095Z,981.11
2017-12-14T04:47:11.071Z,981.28
2017-12-14T04:48:11.040Z,981.36
2017-12-14T04:49:11.319Z,981.33
2017-12-14T04:50:10.980Z,981.01
2017-12-14T04:51:10.940Z,981.34
2017-12-14T04:52:10.911Z,981.30
2017-12-14T04:53:10.884Z,981.25
2017-12-14T04:54:10.853Z,981.36
2017-12-14T04:55:10.818Z,981.36
2017-12-14T04:56:10.792Z,981.20
2017-12-14T04:57:10.755Z,981.33
2017-12-14T04:58:10.720Z,981.29
2017-12-14T04:59:10.698Z,981.28
2017-12-14T05:00:10.662Z,981.31
2017-12-14T05:01:10.886Z,981.38
2017-12-14T05:02:10.601Z,981.53
2017-12-14T05:03:10.562Z,981.35
2017-12-14T05:04:10.529Z,981.25
2017-12-14T05:05:10.508Z,981.43
2017-12-14T05:06:10.471Z,981.38
2017-12-14T05:07:10.685Z,981.36
2017-12-14T05:08:10.416Z,981.34
2017-12-14T05:09:10.384Z,981.21
2017-12-14T05:10:10.348Z,981.33
2017-12-14T05:11:10.328Z,981.63
2017-12-14T05:12:10.285Z,981.47
2017-12-14T05:13:10.251Z,981.41
2017-12-14T05:14:10.235Z,981.42
2017-12-14T05:15:10.193Z,981.22
2017-12-14T05:16:10.164Z,981.40
2017-12-14T05:17:10.134Z,981.39
2017-12-14T05:18:10.098Z,981.22
2017-12-14T05:19:10.060Z,981.26
2017-12-14T05:20:10.037Z,981.58
2017-12-14T05:21:10.014Z,981.71
2017-12-14T05:22:09.973Z,981.47
2017-12-14T05:23:09.940Z,981.49
2017-12-14T05:24:09.903Z,981.60
2017-12-14T05:25:09.887Z,981.44
2017-12-14T05:26:09.847Z,981.43
2017-12-14T05:27:09.827Z,981.36
2017-12-14T05:28:09.788Z,981.46
2017-12-14T05:29:09.758Z,981.57
2017-12-14T05:30:09.719Z,981.54
2017-12-14T05:31:09.996Z,981.47
2017-12-14T05:32:09.656Z,981.53
2017-12-14T05:33:09.632Z,981.54
2017-12-14T05:34:09.598Z,981.48
2017-12-14T05:35:09.562Z,981.48
2017-12-14T05:36:09.535Z,981.40
2017-12-14T05:37:09.517Z,981.80
2017-12-14T05:38:09.473Z,981.60
2017-12-14T05:39:09.450Z,981.67
2017-12-14T05:40:09.417Z,981.53
2017-12-14T05:41:09.381Z,981.59
2017-12-14T05:42:09.344Z,981.65
2017-12-14T05:43:09.566Z,981.72
2017-12-14T05:44:09.294Z,981.70
2017-12-14T05:45:09.248Z,981.66
2017-12-14T05:46:09.219Z,981.68
2017-12-14T05:47:09.194Z,981.65
2017-12-14T05:48:09.176Z,981.63
2017-12-14T05:49:09.122Z,981.74
2017-12-14T05:50:09.091Z,981.67
2017-12-14T05:51:09.060Z,981.81
2017-12-14T05:52:09.035Z,981.57
2017-12-14T05:53:09.003Z,981.35
2017-12-14T05:54:08.986Z,981.88
2017-12-14T05:55:08.940Z,981.56
2017-12-14T05:56:08.906Z,981.85
2017-12-14T05:57:08.883Z,981.85
2017-12-14T05:58:08.852Z,981.91
2017-12-14T05:59:08.811Z,982.09
2017-12-14T06:00:08.790Z,982.12
2017-12-14T06:01:09.010Z,981.92
2017-12-14T06:02:08.718Z,981.64
2017-12-14T06:03:08.694Z,981.63
2017-12-14T06:04:08.663Z,981.86
2017-12-14T06:05:08.635Z,981.83
2017-12-14T06:06:08.596Z,981.94
2017-12-14T06:07:08.573Z,981.86
2017-12-14T06:08:08.527Z,982.06
2017-12-14T06:09:08.502Z,982.05
2017-12-14T06:10:08.469Z,982.04
2017-12-14T06:11:08.435Z,981.80
2017-12-14T06:12:08.418Z,982.14
2017-12-14T06:13:08.384Z,982.01
2017-12-14T06:14:08.344Z,982.07
2017-12-14T06:15:08.313Z,982.06
2017-12-14T06:16:08.284Z,981.78
2017-12-14T06:17:08.246Z,982.23
2017-12-14T06:18:08.218Z,981.59
2017-12-14T06:19:08.200Z,982.19
2017-12-14T06:20:08.161Z,982.18
2017-12-14T06:21:08.125Z,982.35
2017-12-14T06:22:08.099Z,982.42
2017-12-14T06:23:08.065Z,982.39
2017-12-14T06:24:08.031Z,982.08
2017-12-14T06:25:08.003Z,982.39
2017-12-14T06:26:07.973Z,982.14
2017-12-14T06:27:07.938Z,982.28
2017-12-14T06:28:07.913Z,982.37
2017-12-14T06:29:07.880Z,982.30
2017-12-14T06:30:07.864Z,982.31
2017-12-14T06:31:07.817Z,982.50
2017-12-14T06:32:07.780Z,982.14
2017-12-14T06:33:07.748Z,982.02
2017-12-14T06:34:07.753Z,982.09
2017-12-14T06:35:07.690Z,982.36
2017-12-14T06:36:07.666Z,982.26
2017-12-14T06:37:07.631Z,982.04
2017-12-14T06:38:07.595Z,982.41
2017-12-14T06:39:07.556Z,982.26
2017-12-14T06:40:07.533Z,982.49
2017-12-14T06:41:07.507Z,982.16
2017-12-14T06:42:07.482Z,982.52
2017-12-14T06:43:07.431Z,982.46
2017-12-14T06:44:07.412Z,982.17
2017-12-14T06:45:07.380Z,982.41
2017-12-14T06:46:07.352Z,982.34
2017-12-14T06:47:07.312Z,982.40
2017-12-14T06:48:07.634Z,982.31
2017-12-14T06:49:07.251Z,982.39
2017-12-14T06:50:07.221Z,982.43
2017-12-14T06:51:07.194Z,982.62
2017-12-14T06:52:07.161Z,982.44
2017-12-14T06:53:07.131Z,982.50
2017-12-14T06:54:07.096Z,982.63
2017-12-14T06:55:07.059Z,982.61
2017-12-14T06:56:07.037Z,982.57
2017-12-14T06:57:07.002Z,982.60
2017-12-14T06:58:06.972Z,982.51
2017-12-14T06:59:06.940Z,982.62
2017-12-14T07:00:06.901Z,982.66
2017-12-14T07:01:06.887Z,982.63
2017-12-14T07:02:06.844Z,982.61
2017-12-14T07:03:06.817Z,982.40
2017-12-14T07:04:06.792Z,982.62
2017-12-14T07:05:07.056Z,982.66
2017-12-14T07:06:06.721Z,982.52
2017-12-14T07:07:06.696Z,982.65
2017-12-14T07:08:06.656Z,982.68
2017-12-14T07:09:06.628Z,982.76
2017-12-14T07:10:06.603Z,982.88
2017-12-14T07:11:06.564Z,982.68
2017-12-14T07:12:06.537Z,982.70
2017-12-14T07:13:06.512Z,982.67
2017-12-14T07:14:06.481Z,982.91
2017-12-14T07:15:06.439Z,982.84
2017-12-14T07:16:06.413Z,982.99
2017-12-14T07:17:06.378Z,982.52
2017-12-14T07:18:06.348Z,982.90
2017-12-14T07:19:06.316Z,982.91
2017-12-14T07:20:06.289Z,982.87
2017-12-14T07:21:06.262Z,982.85
2017-12-14T07:22:06.237Z,982.83
2017-12-14T07:23:06.203Z,982.84
2017-12-14T07:24:06.167Z,982.92
2017-12-14T07:25:06.129Z,982.86
2017-12-14T07:26:06.096Z,982.99
2017-12-14T07:27:06.065Z,982.89
2017-12-14T07:28:06.045Z,982.88
2017-12-14T07:29:06.033Z,982.90
2017-12-14T07:30:05.980Z,982.86
2017-12-14T07:31:05.949Z,982.82
2017-12-14T07:32:05.914Z,983.05
2017-12-14T07:33:05.892Z,982.95
2017-12-14T07:34:05.854Z,982.88
2017-12-14T07:35:05.832Z,982.95
2017-12-14T07:36:05.807Z,983.01
2017-12-14T07:37:05.768Z,983.00
2017-12-14T07:38:05.728Z,982.99
2017-12-14T07:39:05.700Z,983.04
2017-12-14T07:40:05.673Z,983.00
2017-12-14T07:41:05.642Z,983.00
2017-12-14T07:42:05.618Z,983.06
2017-12-14T07:43:05.573Z,983.10
2017-12-14T07:44:05.542Z,982.93
2017-12-14T07:45:05.525Z,982.87
2017-12-14T07:46:05.495Z,983.04
2017-12-14T07:47:05.457Z,983.06
2017-12-14T07:48:05.423Z,983.09
2017-12-14T07:49:05.398Z,983.14
2017-12-14T07:50:05.368Z,983.17
2017-12-14T07:51:05.346Z,983.23
2017-12-14T07:52:05.309Z,983.18
2017-12-14T07:53:05.274Z,983.27
2017-12-14T07:54:05.245Z,983.18
2017-12-14T07:55:05.220Z,983.36
2017-12-14T07:56:05.181Z,983.25
2017-12-14T07:57:05.149Z,983.33
2017-12-14T07:58:05.122Z,983.12
2017-12-14T07:59:05.088Z,983.47
2017-12-14T08:00:05.061Z,983.40
2017-12-14T08:01:05.037Z,983.28
2017-12-14T08:02:04.998Z,983.40
2017-12-14T08:03:04.964Z,983.44
2017-12-14T08:04:04.943Z,983.41
2017-12-14T08:05:04.918Z,983.42
2017-12-14T08:06:04.874Z,983.60
2017-12-14T08:07:04.851Z,983.48
2017-12-14T08:08:04.819Z,983.41
2017-12-14T08:09:04.783Z,983.53
2017-12-14T08:10:04.746Z,983.33
2017-12-14T08:11:04.718Z,983.49
2017-12-14T08:12:04.695Z,983.65
2017-12-14T08:13:04.663Z,983.42
2017-12-14T08:14:04.636Z,983.43
2017-12-14T08:15:04.594Z,983.46
2017-12-14T08:16:04.570Z,983.37
2017-12-14T08:17:04.543Z,983.52
2017-12-14T08:18:04.528Z,983.63
2017-12-14T08:19:04.479Z,983.69
2017-12-14T08:20:04.447Z,983.40
2017-12-14T08:21:04.417Z,983.48
2017-12-14T08:22:04.389Z,983.58
2017-12-14T08:23:04.354Z,983.49
2017-12-14T08:24:04.321Z,983.59
2017-12-14T08:25:04.294Z,983.48
2017-12-14T08:26:04.256Z,983.72
2017-12-14T08:27:04.242Z,983.59
2017-12-14T08:28:04.207Z,983.46
2017-12-14T08:29:04.168Z,983.73
2017-12-14T08:30:04.145Z,983.68
2017-12-14T08:31:04.109Z,983.75
2017-12-14T08:32:04.084Z,983.69
2017-12-14T08:33:04.052Z,983.88
2017-12-14T08:34:04.027Z,983.91
2017-12-14T08:35:03.989Z,983.72
2017-12-14T08:36:03.949Z,983.63
2017-12-14T08:37:03.924Z,983.63
2017-12-14T08:38:03.908Z,983.55
2017-12-14T08:39:03.874Z,983.60
2017-12-14T08:40:03.845Z,983.63
2017-12-14T08:41:03.807Z,983.71
2017-12-14T08:42:03.766Z,983.65
2017-12-14T08:43:03.758Z,983.69
2017-12-14T08:44:03.708Z,983.77
2017-12-14T08:45:03.675Z,984.07
2017-12-14T08:46:03.642Z,983.79
2017-12-14T08:47:03.614Z,983.82
2017-12-14T08:48:03.590Z,983.90
2017-12-14T08:49:03.557Z,983.70
2017-12-14T08:50:03.530Z,983.80
2017-12-14T08:51:03.495Z,983.80
2017-12-14T08:52:03.465Z,984.11
2017-12-14T08:53:03.442Z,984.01
2017-12-14T08:54:03.411Z,984.04
2017-12-14T08:55:03.390Z,983.98
2017-12-14T08:56:03.341Z,984.00
2017-12-14T08:57:03.318Z,984.08
2017-12-14T08:58:03.283Z,984.19
2017-12-14T08:59:03.244Z,984.17
2017-12-14T09:00:03.215Z,984.15
2017-12-14T09:01:03.188Z,984.02
2017-12-14T09:02:03.174Z,984.14
2017-12-14T09:03:03.131Z,984.07
2017-12-14T09:04:03.099Z,984.17
2017-12-14T09:05:03.064Z,984.12
2017-12-14T09:06:03.039Z,984.32
2017-12-14T09:07:03.006Z,984.34
2017-12-14T09:08:02.974Z,984.41
2017-12-14T09:09:02.942Z,984.25
2017-12-14T09:10:02.909Z,984.18
2017-12-14T09:11:02.887Z,984.32
2017-12-14T09:12:02.863Z,984.56
2017-12-14T09:13:02.824Z,983.96
2017-12-14T09:14:02.804Z,984.50
2017-12-14T09:15:02.762Z,984.18
2017-12-14T09:16:03.296Z,984.37
2017-12-14T09:17:02.703Z,984.36
2017-12-14T09:18:02.679Z,984.34
2017-12-14T09:19:02.644Z,984.43
2017-12-14T09:20:02.609Z,984.77
2017-12-14T09:21:02.577Z,984.57
2017-12-14T09:22:02.568Z,984.62
2017-12-14T09:23:02.528Z,984.57
2017-12-14T09:24:02.488Z,984.49
2017-12-14T09:25:02.468Z,984.68
2017-12-14T09:26:02.422Z,984.67
2017-12-14T09:27:02.398Z,984.59
2017-12-14T09:28:02.367Z,984.60
2017-12-14T09:29:02.341Z,984.68
2017-12-14T09:30:02.319Z,984.67
2017-12-14T09:31:02.269Z,984.35
2017-12-14T09:32:02.244Z,984.51
2017-12-14T09:33:02.215Z,984.67
2017-12-14T09:34:02.196Z,984.80
2017-12-14T09:35:02.160Z,984.78
2017-12-14T09:36:02.120Z,984.92
2017-12-14T09:37:02.088Z,984.43
2017-12-14T09:38:02.055Z,984.59
2017-12-14T09:39:02.034Z,984.62
2017-12-14T09:40:01.999Z,984.79
2017-12-14T09:41:01.971Z,984.92
2017-12-14T09:42:01.943Z,984.60
2017-12-14T09:43:01.912Z,984.42
2017-12-14T09:44:01.906Z,984.77
2017-12-14T09:45:01.857Z,984.81
2017-12-14T09:46:01.814Z,984.98
2017-12-14T09:47:01.797Z,984.98
2017-12-14T09:48:01.760Z,984.95
2017-12-14T09:49:01.724Z,984.94
2017-12-14T09:50:01.694Z,984.79
2017-12-14T09:51:01.669Z,984.81
2017-12-14T09:52:01.630Z,984.88
2017-12-14T09:53:01.602Z,984.85
2017-12-14T09:54:01.576Z,984.71
2017-12-14T09:55:01.544Z,984.60
2017-12-14T09:56:01.511Z,985.11
2017-12-14T09:57:01.475Z,985.20
2017-12-14T09:58:01.749Z,984.93
2017-12-14T09:59:01.453Z,984.87
2017-12-14T10:00:01.393Z,984.97
2017-12-14T10:01:01.363Z,985.03
2017-12-14T10:02:01.338Z,985.17
2017-12-14T10:03:01.292Z,985.09
2017-12-14T10:04:01.265Z,984.83
2017-12-14T10:05:01.244Z,984.66
2017-12-14T10:06:01.209Z,985.14
2017-12-14T10:07:01.183Z,984.99
2017-12-14T10:08:01.146Z,984.76
2017-12-14T10:09:01.122Z,984.84
2017-12-14T10:10:01.085Z,985.05
2017-12-14T10:11:01.058Z,985.22
2017-12-14T10:12:01.029Z,985.16
2017-12-14T10:13:01.006Z,985.18
2017-12-14T10:14:00.968Z,985.13
2017-12-14T10:15:00.948Z,985.18
2017-12-14T10:16:00.913Z,985.07
2017-12-14T10:17:00.877Z,985.11
2017-12-14T10:18:00.853Z,984.95
2017-12-14T10:19:00.816Z,985.19
2017-12-14T10:20:00.791Z,985.17
2017-12-14T10:21:00.754Z,985.04
2017-12-14T10:22:00.724Z,985.25
2017-12-14T10:23:00.697Z,985.02
2017-12-14T10:24:00.666Z,985.11
2017-12-14T10:25:00.626Z,985.27
2017-12-14T10:26:00.601Z,985.20
2017-12-14T10:27:00.578Z,984.95
2017-12-14T10:28:00.541Z,985.17
2017-12-14T10:29:00.512Z,985.23
2017-12-14T10:30:00.476Z,985.08
2017-12-14T10:31:00.452Z,985.26
2017-12-14T10:32:00.433Z,985.38
2017-12-14T10:33:00.390Z,985.34
2017-12-14T10:34:00.372Z,985.41
2017-12-14T10:35:00.324Z,985.10
2017-12-14T10:36:00.297Z,985.23
2017-12-14T10:37:00.270Z,985.53
2017-12-14T10:38:00.246Z,985.44
2017-12-14T10:39:00.213Z,985.40
2017-12-14T10:40:00.179Z,985.33
2017-12-14T10:41:00.139Z,985.37
2017-12-14T10:42:00.113Z,985.30
2017-12-14T10:43:00.088Z,985.30
2017-12-14T10:44:00.057Z,985.38
2017-12-14T10:45:00.021Z,985.38
2017-12-14T10:45:59.988Z,985.33
2017-12-14T10:46:59.967Z,985.12
2017-12-14T10:47:59.936Z,985.33
2017-12-14T10:48:59.897Z,985.33
2017-12-14T10:49:59.884Z,984.97
2017-12-14T10:50:59.840Z,985.43
2017-12-14T10:51:59.800Z,985.38
2017-12-14T10:52:59.813Z,985.16
2017-12-14T10:53:59.750Z,985.42
2017-12-14T10:54:59.716Z,985.47
2017-12-14T10:55:59.694Z,985.49
2017-12-14T10:56:59.657Z,985.46
2017-12-14T10:57:59.633Z,985.62
2017-12-14T10:58:59.600Z,985.67
2017-12-14T10:59:59.560Z,985.56
2017-12-14T11:00:59.535Z,985.48
2017-12-14T11:01:59.505Z,985.59
2017-12-14T11:02:59.469Z,985.83
2017-12-14T11:03:59.437Z,985.65
2017-12-14T11:04:59.406Z,985.56
2017-12-14T11:05:59.377Z,985.39
2017-12-14T11:06:59.344Z,985.41
2017-12-14T11:07:59.312Z,985.36
2017-12-14T11:08:59.282Z,985.53
2017-12-14T11:09:59.252Z,985.67
2017-12-14T11:10:59.223Z,985.45
2017-12-14T11:11:59.198Z,985.45
2017-12-14T11:12:59.159Z,985.37
2017-12-14T11:13:59.129Z,985.31
2017-12-14T11:14:59.098Z,985.47
2017-12-14T11:15:59.059Z,985.44
2017-12-14T11:16:59.036Z,985.36
2017-12-14T11:17:59.004Z,985.21
2017-12-14T11:18:58.976Z,985.61
2017-12-14T11:19:58.952Z,985.72
2017-12-14T11:20:58.903Z,985.33
2017-12-14T11:21:58.878Z,985.55
2017-12-14T11:22:58.846Z,985.41
2017-12-14T11:23:58.826Z,985.43
2017-12-14T11:24:58.785Z,985.23
2017-12-14T11:25:58.767Z,985.30
2017-12-14T11:26:58.721Z,985.30
2017-12-14T11:27:58.689Z,985.43
2017-12-14T11:28:58.664Z,985.63
2017-12-14T11:29:58.629Z,985.60
2017-12-14T11:30:58.595Z,985.71
2017-12-14T11:31:58.571Z,985.57
2017-12-14T11:32:58.545Z,985.47
2017-12-14T11:33:58.506Z,985.64
2017-12-14T11:34:58.480Z,985.41
2017-12-14T11:35:58.450Z,985.25
2017-12-14T11:36:58.411Z,985.59
2017-12-14T11:37:58.392Z,985.69
2017-12-14T11:38:58.350Z,985.73
2017-12-14T11:39:58.324Z,985.60
2017-12-14T11:40:58.291Z,985.66
2017-12-14T11:41:58.256Z,985.56
2017-12-14T11:42:58.229Z,985.65
2017-12-14T11:43:58.193Z,985.67
2017-12-14T11:44:58.171Z,985.71
2017-12-14T11:45:58.139Z,985.69
2017-12-14T11:46:58.104Z,985.83
2017-12-14T11:47:58.075Z,985.73
2017-12-14T11:48:58.039Z,985.68
2017-12-14T11:49:58.008Z,985.79
2017-12-14T11:50:58.332Z,985.80
2017-12-14T11:51:57.955Z,985.71
2017-12-14T11:52:57.922Z,985.87
2017-12-14T11:53:57.884Z,985.74
2017-12-14T11:54:57.862Z,985.52
2017-12-14T11:55:57.829Z,985.66
2017-12-14T11:56:57.802Z,985.66
2017-12-14T11:57:57.766Z,985.58
2017-12-14T11:58:57.745Z,985.59
2017-12-14T11:59:57.743Z,985.50
2017-12-14T12:00:57.692Z,985.64
2017-12-14T12:01:57.679Z,985.72
2017-12-14T12:02:57.608Z,985.79
2017-12-14T12:03:57.594Z,985.76
2017-12-14T12:04:57.555Z,985.66
2017-12-14T12:05:57.544Z,985.63
2017-12-14T12:06:57.492Z,985.59
2017-12-14T12:07:57.464Z,985.59
2017-12-14T12:08:57.436Z,985.74
2017-12-14T12:09:57.403Z,985.55
2017-12-14T12:10:57.369Z,985.66
2017-12-14T12:11:57.345Z,985.77
2017-12-14T12:12:57.308Z,985.72
2017-12-14T12:13:57.278Z,985.67
2017-12-14T12:14:57.244Z,985.70
2017-12-14T12:15:57.228Z,985.74
2017-12-14T12:16:57.185Z,985.38
2017-12-14T12:17:57.156Z,985.68
2017-12-14T12:18:57.127Z,985.67
2017-12-14T12:19:57.094Z,985.72
2017-12-14T12:20:57.065Z,985.76
2017-12-14T12:21:57.042Z,985.62
2017-12-14T12:22:57.012Z,985.67
2017-12-14T12:23:56.992Z,985.48
2017-12-14T12:24:56.938Z,985.69
2017-12-14T12:25:56.916Z,985.66
2017-12-14T12:26:56.886Z,985.60
2017-12-14T12:27:56.848Z,985.68